Main page
METAR-TAF:

METAR-TAF

Airports :

London Stansted Airport

London-Stansted, England

latitude: 51-53N, longitude: 000-14E, elevation: 106 m

Current weather observation

The report was made 21 minutes ago, at 16:20 UTC
Wind 10 kt from the South/Southeast
Temperature 15°C
Humidity 41%
Pressure 1019 hPa
Visibility 10 km or more

METAR: EGSS 041620Z AUTO 15010KT 9999 NCD 15/02 Q1019

Time: 17:41 (16:41 UTC)

Forecast

The report was made 5 hours and 41 minutes ago, at 11:00 UTC
Forecast valid from 04 at 12 UTC to 05 at 18 UTC
Wind 10 kt from the South
Visibility 10 km or more
Few clouds at a height of 4500 ft
Temporary
from 05 at 09 UTC to 05 at 18 UTC
Wind 15 kt from the South/Southeast with gusts up to 25 kt

TAF: EGSS 041100Z 0412/0518 17010KT 9999 FEW045 TEMPO 0509/0518 16015G25KT

Weather observations and forecasts of more than 4000 airports (METAR and TAF reports).

The available stations are represented by yellow and red dots on the map.

Hover mouse over dot to see the name of the station.

Then click to see weather observations and forecasts.

To change the map : click on the green buttons with a black cross to zoom in, on the green button with a dash to zoom out, or on the green arrows for adjacent maps.


METAR-TAF: